Time;durP1;ratioP1;P1;durP2;ratioP2;P2;SDS_P1;SDS_P2;PMS_P1;PMS_P2;Temp;Humidity;BMP_temperature;BMP_pressure;BME280_temperature;BME280_humidity;BME280_pressure;Samples;Min_cycle;Max_cycle;Signal;HPM_P1;HPM_P2
2024/01/28 00:00:30;;;;;;;5.40;3.97;;;3.70;99.90;;;;;;5009270;28;20473;-71
2024/01/28 00:02:58;;;;;;;7.70;5.07;;;3.80;99.90;;;;;;4991016;28;20375;-71
2024/01/28 00:05:24;;;;;;;4.33;3.70;;;3.80;99.90;;;;;;4998028;28;20233;-71
2024/01/28 00:07:49;;;;;;;6.80;4.20;;;3.70;99.90;;;;;;5002894;28;20460;-71
2024/01/28 00:10:15;;;;;;;5.83;3.67;;;3.70;99.90;;;;;;5004218;28;20229;-71
2024/01/28 00:12:40;;;;;;;7.23;4.30;;;3.70;99.90;;;;;;4986896;28;20226;-72
2024/01/28 00:15:06;;;;;;;3.93;3.50;;;3.70;99.90;;;;;;4986552;28;20259;-71
2024/01/28 00:17:32;;;;;;;8.87;3.90;;;3.70;99.90;;;;;;4998695;28;20217;-72
2024/01/28 00:19:58;;;;;;;8.30;4.47;;;3.60;99.90;;;;;;4996090;28;20511;-72
2024/01/28 00:22:23;;;;;;;7.53;4.20;;;3.60;99.90;;;;;;4997846;28;20248;-71
2024/01/28 00:24:50;;;;;;;7.33;3.90;;;3.60;99.90;;;;;;4988808;28;20225;-71
2024/01/28 00:27:15;;;;;;;7.50;4.87;;;3.50;99.90;;;;;;4996625;28;20226;-71
2024/01/28 00:29:41;;;;;;;7.97;4.30;;;3.50;99.90;;;;;;4996317;28;20464;-71
2024/01/28 00:32:07;;;;;;;7.27;4.27;;;3.40;99.90;;;;;;4999098;28;20300;-71
2024/01/28 00:34:32;;;;;;;9.30;5.60;;;3.50;99.90;;;;;;5009052;28;20216;-72
2024/01/28 00:36:58;;;;;;;10.03;4.67;;;3.50;99.90;;;;;;5003719;28;20214;-71
2024/01/28 00:39:24;;;;;;;9.57;4.40;;;3.40;99.90;;;;;;4994722;28;20225;-71
2024/01/28 00:41:50;;;;;;;9.80;4.87;;;3.50;99.90;;;;;;5007153;28;20229;-71
2024/01/28 00:44:16;;;;;;;8.83;4.77;;;3.50;99.90;;;;;;5004783;28;20465;-71
2024/01/28 00:46:41;;;;;;;6.23;5.07;;;3.50;99.90;;;;;;4982522;28;20207;-71
2024/01/28 00:49:07;;;;;;;7.30;4.77;;;3.50;99.90;;;;;;5000087;28;20221;-71
2024/01/28 00:51:33;;;;;;;7.77;5.10;;;3.50;99.90;;;;;;5000337;28;20218;-72
2024/01/28 00:53:59;;;;;;;8.53;5.10;;;3.50;99.90;;;;;;5002744;28;20285;-71
2024/01/28 00:56:25;;;;;;;9.17;4.73;;;3.50;99.90;;;;;;4996929;28;20257;-72
2024/01/28 00:58:51;;;;;;;13.53;5.33;;;3.50;99.90;;;;;;5004027;28;20452;-71
2024/01/28 01:01:18;;;;;;;10.77;5.40;;;3.50;99.90;;;;;;4987598;28;20636;-70
2024/01/28 01:03:43;;;;;;;7.80;4.43;;;3.50;99.90;;;;;;5007540;28;20229;-70
2024/01/28 01:06:09;;;;;;;5.53;3.70;;;3.50;99.90;;;;;;4995885;28;20449;-71
2024/01/28 01:08:35;;;;;;;6.87;4.53;;;3.40;99.90;;;;;;5006756;28;20243;-71
2024/01/28 01:11:05;;;;;;;6.47;4.10;;;3.40;99.90;;;;;;5004537;28;20305;-71
2024/01/28 01:13:34;;;;;;;10.43;5.03;;;3.40;99.90;;;;;;5012728;28;20236;-71
2024/01/28 01:16:00;;;;;;;7.97;3.93;;;3.40;99.90;;;;;;5006903;28;20515;-71
2024/01/28 01:18:26;;;;;;;9.20;4.50;;;3.40;99.90;;;;;;5001545;28;20457;-71
2024/01/28 01:20:52;;;;;;;5.50;4.17;;;3.40;99.90;;;;;;5010309;28;20223;-70
2024/01/28 01:23:18;;;;;;;7.13;4.17;;;3.40;99.90;;;;;;4998564;28;20222;-71
2024/01/28 01:25:44;;;;;;;11.70;4.47;;;3.30;99.90;;;;;;5021033;28;21019;-69
2024/01/28 01:28:10;;;;;;;12.43;4.50;;;3.40;99.90;;;;;;4995183;28;20226;-72
2024/01/28 01:30:36;;;;;;;13.00;5.70;;;3.40;99.90;;;;;;5002738;28;20244;-71
2024/01/28 01:33:01;;;;;;;11.00;4.73;;;3.40;99.90;;;;;;4985374;28;20241;-71
2024/01/28 01:35:27;;;;;;;6.53;4.53;;;3.40;99.90;;;;;;4990342;28;20558;-71
2024/01/28 01:37:54;;;;;;;7.90;4.87;;;3.30;99.90;;;;;;4978893;28;20238;-71
2024/01/28 01:40:20;;;;;;;7.00;4.10;;;3.30;99.90;;;;;;4976932;28;20229;-71
2024/01/28 01:42:47;;;;;;;6.67;4.40;;;3.30;99.90;;;;;;5003188;28;20503;-71
2024/01/28 01:45:12;;;;;;;7.03;4.67;;;3.30;99.90;;;;;;4999410;28;20471;-71
2024/01/28 01:47:39;;;;;;;7.57;4.83;;;3.30;99.90;;;;;;5012515;28;20453;-72
2024/01/28 01:50:10;;;;;;;13.00;4.57;;;3.30;99.90;;;;;;5013610;28;20225;-71
2024/01/28 01:52:38;;;;;;;7.57;4.93;;;3.30;99.90;;;;;;4998763;28;20470;-71
2024/01/28 01:55:05;;;;;;;6.13;4.93;;;3.30;99.90;;;;;;5009990;28;20465;-71
2024/01/28 01:57:31;;;;;;;4.83;4.00;;;3.30;99.90;;;;;;5001372;28;20457;-71
2024/01/28 01:59:57;;;;;;;11.83;4.30;;;3.30;99.90;;;;;;5000635;28;20453;-70
2024/01/28 02:02:24;;;;;;;6.77;5.13;;;3.20;99.90;;;;;;4981362;28;20234;-71
2024/01/28 02:04:50;;;;;;;5.77;4.30;;;3.20;99.90;;;;;;5010917;28;20233;-71
2024/01/28 02:07:16;;;;;;;4.97;3.00;;;3.20;99.90;;;;;;4999350;28;20461;-70
2024/01/28 02:09:42;;;;;;;5.03;3.70;;;3.20;99.90;;;;;;5006704;28;20479;-72
2024/01/28 02:12:08;;;;;;;8.70;4.60;;;3.10;99.90;;;;;;5008441;28;20456;-72
2024/01/28 02:14:34;;;;;;;8.40;4.63;;;3.10;99.90;;;;;;5008605;28;20286;-71
2024/01/28 02:17:00;;;;;;;5.80;3.87;;;3.10;99.90;;;;;;5014954;28;20528;-71
2024/01/28 02:19:27;;;;;;;5.77;4.63;;;3.10;99.90;;;;;;5001163;28;20218;-72
2024/01/28 02:21:53;;;;;;;5.73;4.30;;;3.00;99.90;;;;;;4990142;28;20457;-70
2024/01/28 02:24:19;;;;;;;7.73;4.33;;;3.00;99.90;;;;;;4999135;28;21330;-72
2024/01/28 02:26:45;;;;;;;4.93;3.53;;;3.00;99.90;;;;;;5002033;28;20493;-70
2024/01/28 02:29:11;;;;;;;9.77;4.97;;;3.00;99.90;;;;;;4997959;28;20253;-71
2024/01/28 02:31:36;;;;;;;7.63;4.77;;;3.00;99.90;;;;;;4998356;28;20256;-71
2024/01/28 02:34:02;;;;;;;4.70;3.97;;;3.00;99.90;;;;;;4999265;28;20241;-72
2024/01/28 02:36:29;;;;;;;5.63;4.30;;;3.00;99.90;;;;;;5012336;28;20222;-71
2024/01/28 02:38:55;;;;;;;6.23;4.53;;;2.90;99.90;;;;;;4987444;28;20214;-71
2024/01/28 02:41:21;;;;;;;6.17;4.60;;;2.70;99.90;;;;;;4999816;28;20460;-71
2024/01/28 02:43:46;;;;;;;7.93;3.27;;;2.70;99.90;;;;;;4998738;28;20226;-71
2024/01/28 02:46:13;;;;;;;4.20;3.07;;;2.70;99.90;;;;;;4993405;28;20467;-71
2024/01/28 02:48:38;;;;;;;6.10;4.67;;;2.80;99.90;;;;;;5003281;28;20230;-72
2024/01/28 02:51:04;;;;;;;12.70;5.07;;;2.70;99.90;;;;;;5003653;28;20467;-71
2024/01/28 02:53:30;;;;;;;6.20;4.43;;;2.80;99.90;;;;;;4997195;28;20301;-72
2024/01/28 02:56:00;;;;;;;6.53;3.50;;;2.90;99.90;;;;;;5006428;28;20222;-71
2024/01/28 02:58:30;;;;;;;3.80;3.30;;;2.90;99.90;;;;;;4991773;28;20285;-72
2024/01/28 03:00:56;;;;;;;5.83;4.40;;;2.90;99.90;;;;;;5007495;28;20448;-71
2024/01/28 03:03:22;;;;;;;4.67;3.20;;;3.00;99.90;;;;;;4982850;28;21002;-71
2024/01/28 03:05:47;;;;;;;5.87;3.63;;;3.00;99.90;;;;;;5001122;28;20229;-71
2024/01/28 03:08:13;;;;;;;5.30;2.97;;;3.00;99.90;;;;;;4994173;28;20218;-71
2024/01/28 03:10:39;;;;;;;7.33;3.73;;;3.00;99.90;;;;;;4997316;28;20222;-72
2024/01/28 03:13:05;;;;;;;5.60;4.07;;;3.00;99.90;;;;;;4996170;28;20218;-71
2024/01/28 03:15:31;;;;;;;7.43;3.67;;;3.00;99.90;;;;;;5001831;28;20526;-71
2024/01/28 03:17:57;;;;;;;4.53;2.73;;;3.00;99.90;;;;;;4989063;28;20217;-71
2024/01/28 03:20:25;;;;;;;4.20;3.00;;;2.90;99.90;;;;;;5009997;28;20234;-71
2024/01/28 03:22:50;;;;;;;6.87;3.53;;;2.90;99.90;;;;;;5007106;28;20222;-71
2024/01/28 03:25:17;;;;;;;10.13;3.67;;;2.90;99.90;;;;;;4995380;28;20461;-71
2024/01/28 03:27:42;;;;;;;4.37;3.23;;;2.90;99.90;;;;;;5008831;28;20305;-71
2024/01/28 03:30:08;;;;;;;5.50;3.10;;;2.90;99.90;;;;;;4999867;28;20528;-72
2024/01/28 03:32:34;;;;;;;8.73;3.40;;;2.80;99.90;;;;;;4998904;28;20217;-71
2024/01/28 03:35:03;;;;;;;2.97;2.57;;;2.80;99.90;;;;;;5002447;28;21017;-71
2024/01/28 03:37:28;;;;;;;7.93;3.53;;;2.80;99.90;;;;;;5012128;28;20367;-70
2024/01/28 03:39:54;;;;;;;4.60;3.37;;;2.90;99.90;;;;;;5005575;28;20531;-71
2024/01/28 03:42:20;;;;;;;6.10;3.80;;;2.90;99.90;;;;;;5001323;28;20229;-70
2024/01/28 03:44:46;;;;;;;4.70;3.10;;;2.80;99.90;;;;;;5002875;28;20222;-71
2024/01/28 03:47:12;;;;;;;2.83;2.33;;;2.80;99.90;;;;;;5001230;28;20792;-71
2024/01/28 03:49:37;;;;;;;4.37;2.93;;;2.70;99.90;;;;;;4990263;28;20297;-71
2024/01/28 03:52:03;;;;;;;3.30;2.70;;;2.70;99.90;;;;;;5001142;28;20699;-71
2024/01/28 03:54:29;;;;;;;3.43;2.77;;;2.70;99.90;;;;;;4980253;28;20233;-71
2024/01/28 03:56:54;;;;;;;6.60;2.93;;;2.70;99.90;;;;;;4979831;28;20466;-71
2024/01/28 03:59:20;;;;;;;4.53;3.70;;;2.80;99.90;;;;;;4987955;28;20299;-71
2024/01/28 04:01:46;;;;;;;6.73;2.90;;;2.70;99.90;;;;;;4999519;28;20232;-71
2024/01/28 04:04:11;;;;;;;6.83;3.20;;;2.80;99.90;;;;;;5000087;28;20230;-71
2024/01/28 04:06:44;;;;;;;5.57;3.60;;;2.80;99.90;;;;;;5010638;28;20225;-71
2024/01/28 04:09:10;;;;;;;4.83;2.50;;;2.70;99.90;;;;;;4998480;28;20700;-71
2024/01/28 04:11:36;;;;;;;3.10;2.67;;;2.70;99.90;;;;;;5010516;28;20519;-71
2024/01/28 04:14:02;;;;;;;8.90;2.70;;;2.70;99.90;;;;;;5009282;28;20455;-71
2024/01/28 04:16:27;;;;;;;7.33;3.33;;;2.60;99.90;;;;;;4994137;28;20268;-72
2024/01/28 04:18:54;;;;;;;5.80;3.50;;;2.60;99.90;;;;;;4996375;28;20225;-71
2024/01/28 04:21:20;;;;;;;3.30;2.63;;;2.60;99.90;;;;;;5007759;28;20300;-71
2024/01/28 04:23:48;;;;;;;5.00;3.47;;;2.60;99.90;;;;;;4983498;28;20574;-71
2024/01/28 04:26:14;;;;;;;4.17;3.47;;;2.60;99.90;;;;;;4980670;28;20219;-71
2024/01/28 04:28:40;;;;;;;3.83;2.53;;;2.60;99.90;;;;;;4977346;28;21278;-71
2024/01/28 04:31:07;;;;;;;3.73;2.80;;;2.60;99.90;;;;;;4979484;28;20711;-71
2024/01/28 04:33:32;;;;;;;5.70;3.47;;;2.60;99.90;;;;;;4991534;28;20444;-71
2024/01/28 04:35:58;;;;;;;3.43;3.10;;;2.60;99.90;;;;;;5001164;28;20561;-70
2024/01/28 04:38:24;;;;;;;4.53;2.73;;;2.60;99.90;;;;;;4995693;28;20225;-71
2024/01/28 04:40:49;;;;;;;5.37;3.13;;;2.60;99.90;;;;;;5006839;28;20304;-71
2024/01/28 04:43:15;;;;;;;3.13;2.90;;;2.60;99.90;;;;;;5009971;28;20288;-71
2024/01/28 04:45:41;;;;;;;4.67;3.00;;;2.60;99.90;;;;;;5018102;28;20754;-71
2024/01/28 04:48:07;;;;;;;5.67;3.60;;;2.60;99.90;;;;;;5002497;28;20484;-71
2024/01/28 04:50:33;;;;;;;3.50;3.03;;;2.60;99.90;;;;;;5002502;28;20227;-71
2024/01/28 04:52:58;;;;;;;5.20;3.37;;;2.50;99.90;;;;;;5001644;28;20221;-70
2024/01/28 04:55:24;;;;;;;7.63;3.13;;;2.40;99.90;;;;;;5007978;28;20255;-71
2024/01/28 04:57:49;;;;;;;15.13;3.67;;;2.40;99.90;;;;;;4994571;28;20259;-70
2024/01/28 05:00:15;;;;;;;7.83;4.20;;;2.40;99.90;;;;;;5010146;28;20282;-71
2024/01/28 05:02:41;;;;;;;7.00;3.10;;;2.40;99.90;;;;;;5008654;28;20261;-71
2024/01/28 05:05:07;;;;;;;7.33;4.20;;;2.40;99.90;;;;;;4985090;28;20484;-69
2024/01/28 05:07:34;;;;;;;5.20;3.70;;;2.40;99.90;;;;;;5005754;28;20225;-71
2024/01/28 05:09:59;;;;;;;12.47;3.97;;;2.40;99.90;;;;;;5011298;28;20473;-70
2024/01/28 05:12:25;;;;;;;8.57;3.93;;;2.40;99.90;;;;;;4982630;28;20487;-71
2024/01/28 05:14:51;;;;;;;11.17;4.10;;;2.40;99.90;;;;;;5006706;28;20478;-71
2024/01/28 05:17:17;;;;;;;6.13;3.03;;;2.50;99.90;;;;;;4988655;28;20233;-72
2024/01/28 05:19:42;;;;;;;5.20;3.60;;;2.50;99.90;;;;;;4983917;28;20460;-71
2024/01/28 05:22:08;;;;;;;9.33;4.20;;;2.50;99.90;;;;;;4996271;28;20229;-71
2024/01/28 05:24:34;;;;;;;10.53;4.60;;;2.50;99.90;;;;;;5002931;28;20597;-71
2024/01/28 05:27:02;;;;;;;10.13;4.20;;;2.50;99.90;;;;;;4996621;28;20280;-71
2024/01/28 05:29:27;;;;;;;8.37;3.30;;;2.50;99.90;;;;;;5000055;28;20221;-71
2024/01/28 05:31:53;;;;;;;7.20;3.40;;;2.40;99.90;;;;;;5009782;28;20448;-71
2024/01/28 05:34:19;;;;;;;11.43;4.37;;;2.40;99.90;;;;;;4993441;28;20754;-71
2024/01/28 05:36:51;;;;;;;4.97;3.37;;;2.40;99.90;;;;;;5003780;28;20691;-71
2024/01/28 05:39:17;;;;;;;5.87;3.30;;;2.40;99.90;;;;;;5000788;28;20285;-71
2024/01/28 05:41:43;;;;;;;10.70;4.00;;;2.40;99.90;;;;;;5008945;28;20549;-72
2024/01/28 05:44:10;;;;;;;6.30;3.90;;;2.40;99.90;;;;;;5004701;28;20309;-71
2024/01/28 05:46:36;;;;;;;3.80;2.77;;;2.40;99.90;;;;;;5004943;28;20526;-71
2024/01/28 05:49:01;;;;;;;6.83;3.63;;;2.40;99.90;;;;;;5007228;28;20468;-71
2024/01/28 05:51:27;;;;;;;9.43;4.10;;;2.40;99.90;;;;;;4997782;28;20449;-70
2024/01/28 05:53:56;;;;;;;3.27;2.90;;;2.40;99.90;;;;;;5007802;28;20269;-71
2024/01/28 05:56:22;;;;;;;5.90;3.33;;;2.40;99.90;;;;;;4981480;28;20218;-70
2024/01/28 05:58:50;;;;;;;6.10;3.60;;;2.40;99.90;;;;;;5003161;28;20492;-71
2024/01/28 06:01:16;;;;;;;7.33;3.90;;;2.40;99.90;;;;;;4977643;28;20246;-71
2024/01/28 06:03:42;;;;;;;7.53;2.90;;;2.40;99.90;;;;;;5001728;28;20477;-71
2024/01/28 06:06:07;;;;;;;4.83;3.03;;;2.40;99.90;;;;;;4992907;28;20213;-71
2024/01/28 06:08:33;;;;;;;4.90;2.87;;;2.40;99.90;;;;;;4999266;28;20635;-71
2024/01/28 06:10:59;;;;;;;5.70;3.10;;;2.30;99.90;;;;;;5007763;28;20217;-70
2024/01/28 06:13:25;;;;;;;5.90;3.43;;;2.30;99.90;;;;;;4999347;28;20817;-71
2024/01/28 06:15:52;;;;;;;4.60;2.93;;;2.30;99.90;;;;;;5001249;28;20222;-71
2024/01/28 06:18:19;;;;;;;6.97;3.50;;;2.30;99.90;;;;;;5005892;28;20453;-71
2024/01/28 06:20:45;;;;;;;10.97;3.37;;;2.30;99.90;;;;;;5005876;28;20472;-71
2024/01/28 06:23:11;;;;;;;4.67;2.80;;;2.30;99.90;;;;;;5002048;28;20495;-71
2024/01/28 06:25:37;;;;;;;4.33;2.60;;;2.30;99.90;;;;;;5003470;28;20616;-71
2024/01/28 06:28:03;;;;;;;3.80;2.37;;;2.30;99.90;;;;;;5007062;28;20217;-71
2024/01/28 06:30:32;;;;;;;5.60;2.90;;;2.30;99.90;;;;;;4998532;28;20225;-70
2024/01/28 06:32:58;;;;;;;3.60;2.60;;;2.20;99.90;;;;;;4987104;28;20213;-71
2024/01/28 06:35:23;;;;;;;4.67;2.63;;;2.20;99.90;;;;;;5004687;28;20467;-70
2024/01/28 06:37:49;;;;;;;6.70;3.23;;;2.20;99.90;;;;;;5006570;28;20487;-69
2024/01/28 06:40:15;;;;;;;3.80;3.10;;;2.20;99.90;;;;;;5002883;28;20293;-71
2024/01/28 06:42:41;;;;;;;4.20;3.20;;;2.20;99.90;;;;;;5008525;28;20257;-71
2024/01/28 06:45:10;;;;;;;3.53;2.60;;;2.20;99.90;;;;;;4992253;28;20565;-71
2024/01/28 06:47:36;;;;;;;6.33;3.43;;;2.20;99.90;;;;;;5008259;28;20225;-71
2024/01/28 06:50:02;;;;;;;5.90;3.57;;;2.20;99.90;;;;;;5001077;28;20468;-70
2024/01/28 06:52:27;;;;;;;5.00;3.70;;;2.20;99.90;;;;;;4999269;28;20233;-70
2024/01/28 06:54:53;;;;;;;5.77;3.90;;;2.20;99.90;;;;;;4987623;28;20474;-70
2024/01/28 06:57:19;;;;;;;7.33;4.27;;;2.20;99.90;;;;;;4983988;28;20228;-70
2024/01/28 06:59:45;;;;;;;8.00;4.90;;;2.20;99.90;;;;;;4997942;28;20222;-71
2024/01/28 07:02:12;;;;;;;6.60;4.80;;;2.20;99.90;;;;;;4997821;28;20453;-71
2024/01/28 07:04:38;;;;;;;12.80;5.23;;;2.10;99.90;;;;;;5004152;28;20502;-70
2024/01/28 07:07:04;;;;;;;7.47;4.53;;;2.10;99.90;;;;;;5000649;28;20453;-70
2024/01/28 07:09:30;;;;;;;4.67;4.20;;;2.10;99.90;;;;;;5002121;28;20453;-70
2024/01/28 07:11:56;;;;;;;10.30;5.40;;;2.10;99.90;;;;;;4999222;28;20457;-69
2024/01/28 07:14:22;;;;;;;10.20;4.73;;;2.10;99.90;;;;;;4992332;28;20463;-71
2024/01/28 07:16:49;;;;;;;4.70;4.17;;;2.10;99.90;;;;;;5009482;28;20456;-69
2024/01/28 07:19:15;;;;;;;6.60;4.03;;;2.10;99.90;;;;;;5004500;28;20210;-71
2024/01/28 07:21:40;;;;;;;6.13;4.33;;;2.10;99.90;;;;;;5006066;28;20464;-71
2024/01/28 07:24:06;;;;;;;7.00;4.77;;;2.10;99.90;;;;;;4999231;28;20658;-69
2024/01/28 07:26:32;;;;;;;7.47;5.07;;;2.10;99.90;;;;;;5002707;28;20257;-70
2024/01/28 07:28:58;;;;;;;6.50;4.80;;;2.00;99.90;;;;;;4998318;28;20229;-70
2024/01/28 07:31:23;;;;;;;12.50;4.37;;;2.00;99.90;;;;;;5001498;28;20221;-70
2024/01/28 07:33:49;;;;;;;8.33;4.13;;;2.00;99.90;;;;;;4986285;28;20210;-70
2024/01/28 07:36:16;;;;;;;3.60;2.97;;;2.00;99.90;;;;;;4999288;28;20700;-70
2024/01/28 07:38:42;;;;;;;4.70;4.00;;;2.00;99.90;;;;;;5003599;28;20213;-70
2024/01/28 07:41:14;;;;;;;7.03;3.90;;;2.00;99.90;;;;;;5001894;28;20464;-70
2024/01/28 07:43:40;;;;;;;9.20;4.73;;;2.00;99.90;;;;;;4998368;28;20485;-70
2024/01/28 07:46:07;;;;;;;11.30;6.37;;;2.00;99.90;;;;;;5002838;28;20456;-69
2024/01/28 07:48:33;;;;;;;6.83;5.33;;;2.00;99.90;;;;;;5005576;28;20464;-70
2024/01/28 07:50:58;;;;;;;11.73;6.10;;;2.00;99.90;;;;;;4987437;28;20485;-69
2024/01/28 07:53:24;;;;;;;10.27;6.00;;;2.00;99.90;;;;;;4997931;28;21935;-70
2024/01/28 07:55:50;;;;;;;9.53;6.23;;;2.00;99.90;;;;;;4992254;28;20221;-69
2024/01/28 07:58:15;;;;;;;11.07;6.10;;;2.00;99.90;;;;;;4990373;28;20217;-70
2024/01/28 08:00:41;;;;;;;7.07;5.30;;;2.00;99.90;;;;;;4995955;28;20258;-70
2024/01/28 08:03:07;;;;;;;9.17;4.97;;;2.00;99.90;;;;;;4990287;28;20502;-70
2024/01/28 08:05:33;;;;;;;7.03;5.60;;;2.10;99.90;;;;;;4973016;28;20225;-71
2024/01/28 08:07:58;;;;;;;7.03;3.80;;;2.10;99.90;;;;;;4997983;28;20448;-71
2024/01/28 08:10:24;;;;;;;8.37;4.37;;;2.10;99.90;;;;;;4989247;28;20225;-70
2024/01/28 08:12:51;;;;;;;6.63;3.80;;;2.10;99.90;;;;;;4984305;28;20225;-70
2024/01/28 08:15:17;;;;;;;7.10;4.83;;;2.10;99.90;;;;;;4986747;28;20354;-69
2024/01/28 08:17:44;;;;;;;5.43;3.93;;;2.20;99.90;;;;;;5003590;28;20449;-70
2024/01/28 08:20:10;;;;;;;4.80;3.20;;;2.10;99.90;;;;;;5001995;28;20456;-70
2024/01/28 08:22:37;;;;;;;4.83;3.80;;;2.20;99.90;;;;;;5006880;28;20503;-70
2024/01/28 08:25:04;;;;;;;6.27;3.37;;;2.20;99.90;;;;;;5003823;28;20464;-70
2024/01/28 08:27:30;;;;;;;5.20;4.00;;;2.20;99.90;;;;;;4992651;28;20471;-70
2024/01/28 08:29:56;;;;;;;13.27;4.00;;;2.20;99.90;;;;;;5008794;28;20506;-69
2024/01/28 08:32:22;;;;;;;7.70;4.20;;;2.20;99.90;;;;;;4996229;28;20630;-69
2024/01/28 08:34:49;;;;;;;6.53;3.53;;;2.30;99.90;;;;;;5007014;28;20470;-69
2024/01/28 08:37:15;;;;;;;5.10;3.40;;;2.30;99.90;;;;;;4991535;28;20213;-69
2024/01/28 08:39:41;;;;;;;4.23;3.20;;;2.30;99.90;;;;;;5007264;28;20459;-70
2024/01/28 08:42:07;;;;;;;5.17;4.10;;;2.30;99.90;;;;;;5014040;28;20825;-70
2024/01/28 08:44:32;;;;;;;5.27;3.97;;;2.40;99.90;;;;;;5009723;28;20226;-70
2024/01/28 08:46:58;;;;;;;6.67;4.37;;;2.40;99.90;;;;;;4995195;28;20301;-71
2024/01/28 08:49:24;;;;;;;10.87;5.83;;;2.50;99.90;;;;;;4990925;28;20415;-70
2024/01/28 08:51:50;;;;;;;13.27;6.67;;;2.50;99.90;;;;;;4995835;28;20278;-71
2024/01/28 08:54:15;;;;;;;10.40;6.37;;;2.50;99.90;;;;;;5002340;28;20220;-71
2024/01/28 08:56:41;;;;;;;17.10;7.30;;;2.50;99.90;;;;;;5005303;28;20223;-71
2024/01/28 08:59:07;;;;;;;8.90;5.10;;;2.60;99.90;;;;;;5007160;28;20304;-71
2024/01/28 09:01:33;;;;;;;12.57;5.73;;;2.60;99.90;;;;;;5006623;28;20221;-69
2024/01/28 09:03:58;;;;;;;9.93;4.83;;;2.60;99.90;;;;;;5011180;28;20472;-70
2024/01/28 09:06:24;;;;;;;9.40;6.07;;;2.70;99.90;;;;;;5005580;28;20288;-70
2024/01/28 09:08:50;;;;;;;8.73;6.20;;;2.70;99.90;;;;;;5008787;28;20272;-70
2024/01/28 09:11:15;;;;;;;25.83;7.97;;;2.80;99.90;;;;;;4998784;28;20269;-70
2024/01/28 09:13:41;;;;;;;9.00;5.87;;;2.80;99.90;;;;;;5005137;28;20230;-71
2024/01/28 09:16:07;;;;;;;7.03;5.50;;;2.80;99.90;;;;;;4985973;28;20708;-71
2024/01/28 09:18:33;;;;;;;6.47;4.60;;;2.90;99.90;;;;;;4988024;28;20480;-70
2024/01/28 09:20:59;;;;;;;8.97;5.07;;;2.90;99.90;;;;;;5004989;28;20210;-70
2024/01/28 09:23:25;;;;;;;8.33;4.37;;;3.00;99.90;;;;;;5017035;28;20276;-71
2024/01/28 09:25:51;;;;;;;8.33;5.50;;;3.10;99.90;;;;;;5002104;28;20464;-69
2024/01/28 09:28:16;;;;;;;6.40;4.17;;;3.10;99.90;;;;;;5014156;28;20957;-71
2024/01/28 09:30:42;;;;;;;6.03;5.10;;;3.20;99.90;;;;;;5000425;28;20229;-71
2024/01/28 09:33:11;;;;;;;7.93;5.00;;;3.30;99.90;;;;;;4993981;28;20217;-71
2024/01/28 09:35:39;;;;;;;6.93;4.73;;;3.30;99.90;;;;;;5009124;28;20241;-71
2024/01/28 09:38:06;;;;;;;6.73;4.77;;;3.40;99.90;;;;;;5009723;28;20465;-71
2024/01/28 09:40:32;;;;;;;10.00;5.93;;;3.50;99.90;;;;;;4997275;28;20454;-71
2024/01/28 09:43:27;;;;;;;11.20;5.90;;;3.60;99.90;;;;;;5009547;28;20838;-69
2024/01/28 09:45:53;;;;;;;9.90;7.00;;;3.70;99.90;;;;;;4990475;28;20500;-71
2024/01/28 09:48:20;;;;;;;10.50;7.13;;;3.70;99.90;;;;;;4990354;28;20477;-71
2024/01/28 09:50:46;;;;;;;14.30;7.60;;;3.80;99.90;;;;;;4993017;28;20533;-71
2024/01/28 09:53:13;;;;;;;11.77;6.93;;;3.80;99.90;;;;;;4991610;28;20569;-72
2024/01/28 09:55:39;;;;;;;11.97;7.53;;;3.90;99.90;;;;;;4991511;28;20824;-71
2024/01/28 09:58:05;;;;;;;19.43;8.80;;;3.90;99.90;;;;;;4995047;28;20522;-71
2024/01/28 10:00:31;;;;;;;13.67;8.93;;;4.00;99.90;;;;;;5011883;28;20453;-71
2024/01/28 10:02:57;;;;;;;13.70;8.57;;;4.10;99.90;;;;;;5010954;28;20577;-72
2024/01/28 10:05:22;;;;;;;15.47;11.50;;;4.10;99.90;;;;;;5008601;28;20221;-71
2024/01/28 10:07:49;;;;;;;10.80;8.70;;;4.10;99.90;;;;;;4982026;28;20478;-71
2024/01/28 10:10:18;;;;;;;10.10;7.27;;;4.20;99.90;;;;;;5007903;28;20229;-71
2024/01/28 10:12:47;;;;;;;19.83;7.53;;;4.30;99.90;;;;;;4993000;28;20476;-71
2024/01/28 10:15:17;;;;;;;9.83;6.50;;;4.30;99.90;;;;;;5013387;28;20475;-72
2024/01/28 10:17:48;;;;;;;7.33;5.70;;;4.30;99.90;;;;;;5006017;28;20463;-71
2024/01/28 10:20:19;;;;;;;8.93;7.00;;;4.30;99.90;;;;;;5008434;28;20448;-71
2024/01/28 10:22:44;;;;;;;8.60;7.27;;;4.40;99.90;;;;;;4993599;28;20845;-71
2024/01/28 10:25:12;;;;;;;10.13;6.60;;;4.50;99.90;;;;;;4989751;28;20465;-72
2024/01/28 10:27:38;;;;;;;7.03;5.67;;;4.50;99.90;;;;;;4979995;28;20231;-71
2024/01/28 10:30:04;;;;;;;8.97;6.70;;;4.50;99.90;;;;;;4986570;28;20446;-72
2024/01/28 10:32:30;;;;;;;7.33;5.47;;;4.60;99.90;;;;;;4972473;28;21010;-72
2024/01/28 10:34:55;;;;;;;7.93;5.57;;;4.70;99.90;;;;;;4969685;28;20461;-71
2024/01/28 10:37:23;;;;;;;8.33;5.93;;;4.70;99.90;;;;;;4981805;28;20228;-72
2024/01/28 10:39:53;;;;;;;7.60;5.20;;;4.80;99.90;;;;;;5003436;28;20249;-72
2024/01/28 10:42:20;;;;;;;7.07;5.83;;;4.80;99.90;;;;;;5002630;28;21204;-72
2024/01/28 10:44:52;;;;;;;15.43;5.97;;;4.80;99.90;;;;;;4999089;28;20461;-70
2024/01/28 10:47:18;;;;;;;6.63;5.27;;;4.80;99.90;;;;;;4994844;28;20559;-71
2024/01/28 10:49:48;;;;;;;6.90;6.20;;;5.00;99.90;;;;;;4998348;28;20448;-71
2024/01/28 10:52:15;;;;;;;13.37;7.00;;;5.10;99.90;;;;;;5005586;28;20460;-72
2024/01/28 10:54:42;;;;;;;21.87;10.20;;;5.10;99.90;;;;;;5002942;28;20516;-72
2024/01/28 10:57:09;;;;;;;12.37;8.37;;;5.30;99.90;;;;;;5009897;28;20465;-72
2024/01/28 10:59:37;;;;;;;10.30;6.90;;;5.30;99.90;;;;;;4996310;28;20500;-71
2024/01/28 11:02:04;;;;;;;13.43;6.73;;;5.30;99.90;;;;;;4995661;28;20460;-72
2024/01/28 11:04:32;;;;;;;12.33;7.20;;;5.20;99.90;;;;;;5006674;28;20951;-72
2024/01/28 11:06:58;;;;;;;9.07;6.73;;;5.20;99.90;;;;;;5006294;28;20506;-71
2024/01/28 11:09:24;;;;;;;9.80;7.13;;;5.30;99.90;;;;;;4991633;28;20449;-71
2024/01/28 11:11:50;;;;;;;8.20;6.10;;;5.40;99.90;;;;;;5008054;28;20598;-72
2024/01/28 11:14:17;;;;;;;8.53;6.50;;;5.50;99.90;;;;;;5006822;28;20688;-72
2024/01/28 11:16:44;;;;;;;16.27;6.93;;;5.70;99.90;;;;;;5006633;28;20457;-72
2024/01/28 11:19:14;;;;;;;12.10;6.30;;;5.70;99.90;;;;;;5006812;28;20548;-72
2024/01/28 11:21:41;;;;;;;9.47;5.33;;;6.00;99.90;;;;;;5006536;28;20441;-71
2024/01/28 11:24:10;;;;;;;10.10;5.90;;;6.00;99.90;;;;;;5012336;28;20469;-72
2024/01/28 11:26:37;;;;;;;11.43;6.57;;;6.00;99.90;;;;;;5008866;28;20912;-71
2024/01/28 11:29:07;;;;;;;8.53;5.70;;;5.90;99.90;;;;;;5001683;28;20450;-71
2024/01/28 11:31:34;;;;;;;8.13;5.73;;;5.80;99.90;;;;;;5011677;28;20461;-72
2024/01/28 11:34:17;;;;;;;8.80;5.43;;;5.90;99.90;;;;;;5009437;28;20448;-72
2024/01/28 11:36:48;;;;;;;12.57;5.53;;;6.10;99.90;;;;;;4999451;28;20453;-72
2024/01/28 11:39:15;;;;;;;6.83;5.17;;;6.20;99.90;;;;;;4992445;28;20515;-72
2024/01/28 11:41:45;;;;;;;10.17;6.17;;;6.30;99.90;;;;;;5008401;28;20484;-71
2024/01/28 11:44:12;;;;;;;9.30;5.80;;;6.50;99.90;;;;;;5005656;28;20611;-72
2024/01/28 11:46:39;;;;;;;7.47;5.33;;;6.60;99.90;;;;;;5002091;28;20916;-72
2024/01/28 11:49:09;;;;;;;10.37;5.30;;;6.60;99.90;;;;;;4998440;28;20468;-72
2024/01/28 11:51:35;;;;;;;7.60;5.90;;;6.50;99.90;;;;;;5003952;28;20484;-72
2024/01/28 11:54:03;;;;;;;14.33;6.20;;;6.40;99.90;;;;;;4993810;28;20476;-72
2024/01/28 11:56:35;;;;;;;7.73;5.83;;;6.40;99.90;;;;;;5004909;28;20444;-72
2024/01/28 11:59:03;;;;;;;8.97;6.40;;;6.50;99.90;;;;;;5000016;28;20471;-72
2024/01/28 12:01:29;;;;;;;10.90;6.10;;;6.60;99.90;;;;;;4979388;28;21007;-72
2024/01/28 12:03:55;;;;;;;10.20;6.00;;;6.80;99.90;;;;;;4986279;28;20561;-72
2024/01/28 12:06:26;;;;;;;17.60;6.03;;;6.90;99.90;;;;;;4967944;28;20449;-71
2024/01/28 12:08:53;;;;;;;8.87;5.80;;;6.80;99.90;;;;;;5006968;28;20468;-71
2024/01/28 12:11:22;;;;;;;10.13;6.37;;;6.90;99.90;;;;;;5006562;28;20449;-71
2024/01/28 12:13:51;;;;;;;10.07;5.80;;;6.80;99.90;;;;;;5023371;28;20487;-71
2024/01/28 12:16:24;;;;;;;13.00;7.53;;;6.70;99.90;;;;;;5007022;28;20527;-72
2024/01/28 12:18:53;;;;;;;8.27;5.63;;;6.80;99.90;;;;;;5006243;28;20469;-72
2024/01/28 12:21:20;;;;;;;15.80;6.77;;;6.80;99.90;;;;;;4989410;28;20507;-72
2024/01/28 12:23:47;;;;;;;7.70;5.73;;;6.90;99.90;;;;;;5004258;28;20470;-71
2024/01/28 12:26:16;;;;;;;11.10;6.77;;;7.00;99.90;;;;;;5004990;28;20456;-72
2024/01/28 12:28:51;;;;;;;11.23;6.13;;;6.90;99.90;;;;;;5007547;28;20461;-72
2024/01/28 12:31:20;;;;;;;8.60;5.67;;;6.90;99.90;;;;;;5001666;28;20463;-72
2024/01/28 12:33:47;;;;;;;8.67;5.47;;;7.00;99.90;;;;;;4984744;28;20519;-71
2024/01/28 12:36:13;;;;;;;6.23;5.40;;;7.10;99.90;;;;;;4986334;28;20453;-73
2024/01/28 12:38:39;;;;;;;11.80;5.30;;;7.00;99.90;;;;;;4988291;28;20979;-72
2024/01/28 12:41:06;;;;;;;13.73;6.40;;;7.00;99.90;;;;;;4985065;28;20330;-72
2024/01/28 12:43:31;;;;;;;7.80;6.17;;;7.00;99.90;;;;;;4996176;28;20305;-71
2024/01/28 12:45:57;;;;;;;6.57;5.40;;;7.10;99.90;;;;;;4986346;28;20541;-72
2024/01/28 12:48:23;;;;;;;9.30;6.10;;;7.00;99.90;;;;;;4987899;28;20230;-72
2024/01/28 12:50:49;;;;;;;7.80;5.33;;;7.00;99.90;;;;;;4985650;28;20462;-71